Latest Coastal Weather Observations for Larapuna (Eddystone Point)

IDT60701

Issued at 4:51 am EST Saturday 7 May 2016 (issued every 10 minutes, with the page automatically refreshed every 10 minutes)

About coastal observations | Map of coastal stations | Coastal observations for TAS | Marine services | Other Formats
Station Details ID: 092045 Name: LARAPUNA (EDDYSTONE POINT) Lat: -40.99 Lon: 148.35 Height: 19.7 m
Data from the previous 72 hours. | See also: Recent months at Larapuna (Eddystone Point)
Date/Time
EST
Temp

°C
Wind Pressure Rain
since 9am
mm
Weather Cloud Vis
km
Sea
Height
m
Swell
Dir
 
Speed
knots
Gust
knots
hPa Trend Height
m
Period
s
Dir
07/04:30am 13.3 NW 6 7 1016.9 - 0.0 - - - - - - -
07/04:00am 13.3 WNW 6 8 1016.8 - 0.0 - - - - - - -
07/03:30am 12.9 WNW 7 9 1016.7 - 0.0 - - - - - - -
07/03:00am 12.6 WNW 7 9 1016.7 - 0.0 - - - - - - -
07/02:30am 12.5 NW 5 7 1016.8 - 0.0 - - - - - - -
07/02:00am 12.2 WNW 8 10 1016.7 - 0.0 - - - - - - -
07/01:30am 12.0 WNW 8 9 1016.5 - 0.0 - - - - - - -
07/01:00am 12.2 NW 7 8 1016.6 - 0.0 - - - - - - -
07/12:30am 12.5 WNW 8 9 1016.9 - 0.0 - - - - - - -
07/12:00am 12.3 WNW 9 9 1016.9 - 0.0 - - - - - - -
 
Date/Time
EST
Temp

°C
Wind Pressure Rain
since 9am
mm
Weather Cloud Vis
km
Sea
Height
m
Swell
Dir
 
Speed
knots
Gust
knots
hPa Trend Height
m
Period
s
Dir
06/11:30pm 12.4 WNW 7 8 1016.8 - 0.0 - - - - - - -
06/11:00pm 12.9 WNW 8 11 1016.8 - 0.0 - - - - - - -
06/10:30pm 13.4 NW 8 9 1016.8 - 0.0 - - - - - - -
06/10:00pm 13.7 NW 8 11 1016.6 - 0.0 - - - - - - -
06/09:30pm 14.4 NNW 9 12 1016.4 - 0.0 - - - - - - -
06/09:00pm 14.6 NNW 9 11 1016.5 - 0.0 - - - - - - -
06/08:30pm 14.9 NNW 10 13 1016.1 - 0.0 - - - - - - -
06/08:00pm 14.7 NNW 9 11 1015.9 - 0.0 - - - - - - -
06/07:30pm 14.8 NNW 10 13 1015.6 - 0.0 - - - - - - -
06/07:00pm 14.5 NW 8 11 1015.0 - 0.0 - - - - - - -
06/06:30pm 14.7 NW 7 9 1014.8 - 0.0 - - - - - - -
06/06:00pm 15.1 NW 9 11 1014.4 - 0.0 - - - - - - -
06/05:30pm 15.5 NW 8 12 1013.8 - 0.0 - - - - - - -
06/05:00pm 15.9 WNW 11 15 1013.5 - 0.0 - - - - - - -
06/04:30pm 16.6 WNW 15 21 1013.2 - 0.0 - - - - - - -
06/04:00pm 17.1 WNW 13 19 1012.8 - 0.0 - - - - - - -
06/03:30pm 17.6 NW 16 24 1012.3 - 0.0 - - - - - - -
06/03:00pm 18.2 NW 17 24 1012.2 - 0.0 - - - - - - -
06/02:30pm 18.7 NW 15 21 1012.0 - 0.0 - - - - - - -
06/02:23pm 18.8 NW 18 28 1012.0 - 0.0 - - - - - - -
06/02:00pm 19.0 NW 18 26 1011.5 - 0.0 - - - - - - -
06/01:30pm 19.3 NW 17 24 1011.6 - 0.0 - - - - - - -
06/01:00pm 19.3 NW 19 26 1011.6 - 0.0 - - - - - - -
06/12:31pm 19.2 WNW 21 31 1011.5 - 0.0 - - - - - - -
06/12:30pm 19.0 WNW 22 31 1011.5 - 0.0 - - - - - - -
06/12:02pm 19.5 WNW 17 27 1011.5 - 0.0 - - - - - - -
06/12:00pm 19.3 WNW 18 27 1011.6 - 0.0 - - - - - - -
06/11:35am 19.2 WNW 17 29 1011.9 - 0.0 - - - - - - -
06/11:30am 19.2 WNW 18 25 1011.9 - 0.0 - - - - - - -
06/11:00am 19.2 WNW 17 25 1012.0 - 0.0 - - - - - - -
06/10:36am 18.8 WNW 16 27 1011.7 - 0.0 - - - - - - -
06/10:30am 19.3 WNW 16 24 1011.7 - 0.0 - - - - - - -
06/10:00am 18.9 NW 24 35 1011.1 - 0.0 - - - - - - -
06/09:31am 18.8 NW 22 32 1011.1 - 0.0 - - - - - - -
06/09:30am 18.6 NW 23 32 1011.1 - 0.0 - - - - - - -
06/09:00am 18.6 NW 22 32 1010.6 - 0.0 - - - - - - -
06/08:30am 18.4 NW 23 34 1010.4 - 0.0 - - - - - - -
06/08:00am 18.2 NW 24 35 1009.9 - 0.0 - - - - - - -
06/07:30am 17.9 NW 25 35 1009.6 - 0.0 - - - - - - -
06/07:00am 17.7 NW 27 37 1008.9 - 0.0 - - - - - - -
06/06:33am 17.5 NW 27 37 1008.5 - 0.0 - - - - - - -
06/06:30am 17.4 NW 28 37 1008.5 - 0.0 - - - - - - -
06/06:00am 17.6 NW 31 42 1008.0 - 0.0 - - - - - - -
06/05:30am 17.7 NW 31 41 1007.4 - 0.0 - - - - - - -
06/05:00am 17.6 NW 30 40 1007.5 - 0.0 - - - - - - -
06/04:31am 17.6 NW 31 41 1007.6 - 0.0 - - - - - - -
06/04:30am 17.6 NW 31 39 1007.6 - 0.0 - - - - - - -
06/04:03am 17.4 NNW 28 38 1007.6 - 0.0 - - - - - - -
06/04:00am 17.4 NNW 28 37 1007.7 - 0.0 - - - - - - -
06/03:30am 17.5 NNW 27 38 1007.9 - 0.0 - - - - - - -
06/03:04am 17.3 NNW 24 35 1008.2 - 0.0 - - - - - - -
06/03:00am 17.4 NNW 23 32 1008.3 - 0.0 - - - - - - -
06/02:30am 17.2 NNW 24 34 1008.5 - 0.0 - - - - - - -
06/02:29am 17.1 NNW 24 34 1008.5 - 0.0 - - - - - - -
06/02:00am 16.8 NNW 25 34 1008.5 - 0.0 - - - - - - -
06/01:30am 16.7 NNW 24 30 1008.7 - 0.0 - - - - - - -
06/01:00am 16.7 NNW 24 31 1008.7 - 0.0 - - - - - - -
06/12:30am 16.9 NNW 25 33 1008.9 - 0.0 - - - - - - -
06/12:00am 17.1 NNW 25 31 1009.1 - 0.0 - - - - - - -
 
Date/Time
EST
Temp

°C
Wind Pressure Rain
since 9am
mm
Weather Cloud Vis
km
Sea
Height
m
Swell
Dir
 
Speed
knots
Gust
knots
hPa Trend Height
m
Period
s
Dir
05/11:53pm 17.3 NNW 26 35 1009.1 - 0.0 - - - - - - -
05/11:30pm 17.4 NNW 30 38 1009.1 - 0.0 - - - - - - -
05/11:11pm 17.2 N 25 35 1009.3 - 0.0 - - - - - - -
05/11:00pm 16.7 N 23 29 1009.5 - 0.0 - - - - - - -
05/10:30pm 17.4 NNW 28 35 1009.9 - 0.0 - - - - - - -
05/10:00pm 17.3 NNW 27 33 1010.2 - 0.0 - - - - - - -
05/09:40pm 16.8 N 21 31 1010.5 - 0.0 - - - - - - -
05/09:30pm 16.7 N 21 29 1010.6 - 0.0 - - - - - - -
05/09:00pm 16.8 N 22 28 1010.8 - 0.0 - - - - - - -
05/08:30pm 17.0 NNW 23 30 1010.8 - 0.0 - - - - - - -
05/08:00pm 16.9 NNW 23 29 1010.7 - 0.0 - - - - - - -
05/07:30pm 16.5 NNW 22 29 1010.8 - 0.0 - - - - - - -
05/07:00pm 16.5 NNW 22 28 1010.5 - 0.0 - - - - - - -
05/06:30pm 16.5 NNW 22 29 1010.3 - 0.0 - - - - - - -
05/06:00pm 16.5 NNW 21 29 1010.2 - 0.0 - - - - - - -
05/05:30pm 16.5 NNW 25 32 1010.0 - 0.0 - - - - - - -
05/05:00pm 16.6 NNW 23 30 1010.1 - 0.0 - - - - - - -
05/04:30pm 17.0 NNW 24 36 1010.0 - 0.0 - - - - - - -
05/04:00pm 17.1 NNW 25 35 1010.1 - 0.0 - - - - - - -
05/03:30pm 17.3 NW 26 37 1010.2 - 0.0 - - - - - - -
05/03:05pm 17.9 NW 27 37 1010.2 - 0.0 - - - - - - -
05/03:00pm 17.9 NW 28 37 1010.2 - 0.0 - - - - - - -
05/02:39pm 18.0 NW 25 35 1010.3 - 0.0 - - - - - - -
05/02:30pm 18.0 NW 26 35 1010.4 - 0.0 - - - - - - -
05/02:00pm 18.3 NW 26 36 1010.7 - 0.0 - - - - - - -
05/01:30pm 18.4 NW 29 42 1011.0 - 0.0 - - - - - - -
05/01:00pm 17.6 NW 25 36 1011.3 - 0.0 - - - - - - -
05/12:30pm 17.8 NW 24 35 1011.6 - 0.0 - - - - - - -
05/12:09pm 17.5 NW 25 35 1012.0 - 0.0 - - - - - - -
05/12:00pm 17.7 NW 24 32 1012.1 - 0.0 - - - - - - -
05/11:42am 17.4 NW 27 38 1012.4 - 0.0 - - - - - - -
05/11:30am 17.7 NW 28 35 1012.5 - 0.0 - - - - - - -
05/11:00am 17.1 NNW 21 32 1013.1 - 0.0 - - - - - - -
05/10:40am 16.9 NNW 20 30 1013.2 - 0.0 - - - - - - -
05/10:30am 16.9 NNW 21 30 1013.3 - 0.0 - - - - - - -
05/10:00am 17.0 NNW 22 29 1013.3 - 0.0 - - - - - - -
05/09:30am 17.1 NNW 23 33 1013.5 - 0.0 - - - - - - -
05/09:05am 16.6 NNW 22 32 1013.6 - 0.0 - - - - - - -
05/09:00am 16.7 NNW 23 32 1013.6 - 0.4 - - - - - - -
05/08:32am 16.4 NNW 20 30 1013.5 - 0.4 - - - - - - -
05/08:30am 16.4 NNW 20 27 1013.5 - 0.4 - - - - - - -
05/08:00am 16.1 NNW 20 29 1013.4 - 0.4 - - - - - - -
05/07:44am 16.0 NNW 21 31 1013.3 - 0.4 - - - - - - -
05/07:30am 15.9 NNW 22 29 1013.0 - 0.4 - - - - - - -
05/07:00am 15.8 NNW 22 32 1012.7 - 0.4 - - - - - - -
05/06:59am 15.8 NNW 22 32 1012.7 - 0.4 - - - - - - -
05/06:30am 15.8 NNW 20 27 1012.6 - 0.4 - - - - - - -
05/06:00am 15.7 NW 19 25 1012.5 - 0.4 - - - - - - -
05/05:30am 15.6 NW 18 26 1012.4 - 0.4 - - - - - - -
05/05:01am 15.6 NW 17 27 1012.2 - 0.4 - - - - - - -
05/05:00am 15.5 NW 18 27 1012.2 - 0.4 - - - - - - -
05/04:30am 15.4 NW 19 25 1012.0 - 0.4 - - - - - - -
05/04:14am 15.4 NNW 18 28 1011.9 - 0.4 - - - - - - -
05/04:00am 15.4 NW 22 30 1011.8 - 0.4 - - - - - - -
05/03:30am 15.3 NW 20 28 1011.9 - 0.4 - - - - - - -
05/03:07am 15.5 NW 23 33 1011.5 - 0.4 - - - - - - -
05/03:00am 15.4 NW 22 30 1011.6 - 0.4 Recent precip. - - - - - -
05/02:32am 15.2 NW 22 32 1011.6 - 0.4 - - - - - - -
05/02:30am 15.3 NW 23 32 1011.6 - 0.4 - - - - - - -
05/02:03am 15.0 NW 23 35 1011.7 - 0.2 - - - - - - -
05/02:00am 15.0 NW 22 31 1011.7 - 0.2 - - - - - - -
05/01:35am 15.4 NNW 23 34 1011.6 - 0.2 - - - - - - -
05/01:30am 15.4 NNW 22 31 1011.7 - 0.2 - - - - - - -
05/01:29am 15.4 NNW 21 31 1011.7 - 0.2 - - - - - - -
05/01:00am 15.3 NNW 20 29 1011.9 - 0.2 - - - - - - -
05/12:55am 15.2 NNW 19 29 1011.9 - 0.2 - - - - - - -
05/12:30am 15.0 NW 22 30 1012.0 - 0.2 - - - - - - -
05/12:08am 15.5 NNW 21 32 1011.8 - 0.2 - - - - - - -
05/12:00am 15.5 NW 20 28 1011.9 - 0.2 - - - - - - -
 
Date/Time
EST
Temp

°C
Wind Pressure Rain
since 9am
mm
Weather Cloud Vis
km
Sea
Height
m
Swell
Dir
 
Speed
knots
Gust
knots
hPa Trend Height
m
Period
s
Dir
04/11:30pm 15.3 NW 20 26 1012.1 - 0.2 - - - - - - -
04/11:00pm 15.3 NNW 23 32 1012.0 - 0.2 - - - - - - -
04/10:56pm 15.3 NNW 21 32 1011.9 - 0.2 - - - - - - -
04/10:30pm 14.9 NW 21 29 1012.2 - 0.2 - - - - - - -
04/10:00pm 14.6 NW 23 32 1012.2 - 0.2 - - - - - - -
04/09:58pm 14.6 NW 22 32 1012.2 - 0.2 - - - - - - -
04/09:30pm 14.6 NW 22 29 1012.2 - 0.2 - - - - - - -
04/09:00pm 14.1 NW 19 27 1012.1 - 0.2 - - - - - - -
04/08:30pm 13.8 NW 20 26 1012.0 - 0.2 - - - - - - -
04/08:00pm 13.4 NW 19 25 1012.0 - 0.2 - - - - - - -
04/07:30pm 12.5 NW 19 23 1011.7 - 0.2 - - - - - - -
04/07:00pm 12.1 NW 16 21 1011.7 - 0.2 - - - - - - -
04/06:35pm 12.0 NW 18 28 1011.7 - 0.2 - - - - - - -
04/06:30pm 12.8 NW 20 28 1011.9 - 0.2 - - - - - - -
04/06:00pm 12.8 NW 14 19 1011.5 - 0.2 - - - - - - -
04/05:30pm 12.5 NW 15 20 1011.3 - 0.2 - - - - - - -
04/05:00pm 11.9 WNW 13 19 1011.0 - 0.2 - - - - - - -
04/04:30pm 12.5 NW 18 30 1010.7 - 0.0 - - - - - - -
04/04:23pm 13.5 NW 18 30 1010.7 - 0.0 - - - - - - -
04/04:00pm 14.0 NW 17 23 1010.2 - 0.0 - - - - - - -
04/03:44pm 13.8 NW 15 25 1010.1 - 0.0 - - - - - - -
04/03:30pm 13.7 WNW 15 21 1010.1 - 0.0 - - - - - - -
04/03:00pm 14.1 NW 14 18 1010.1 - 0.0 - - - - - - -
04/02:31pm 13.8 WNW 19 29 1010.2 - 0.0 - - - - - - -
04/02:30pm 13.7 WNW 20 29 1010.3 - 0.0 - - - - - - -
04/02:26pm 13.0 WNW 21 29 1010.3 - 0.0 - - - - - - -
04/02:00pm 13.9 WNW 14 19 1010.1 - 0.0 - - - - - - -
04/01:30pm 14.5 WNW 15 23 1010.1 - 0.0 - - - - - - -
04/01:00pm 14.9 WNW 17 25 1009.8 - 0.0 - - - - - - -
04/12:30pm 14.5 WNW 19 30 1010.1 - 0.0 - - - - - - -
04/12:03pm 13.6 WNW 17 28 1010.2 - 0.0 - - - - - - -
04/12:00pm 13.4 WNW 17 25 1010.1 - 0.0 - - - - - - -
04/11:47am 14.7 WNW 16 26 1010.2 - 0.0 - - - - - - -
04/11:30am 13.8 WNW 15 19 1010.2 - 0.0 - - - - - - -
04/11:00am 13.7 WNW 15 21 1010.2 - 0.0 - - - - - - -
04/10:30am 13.8 NW 8 11 1010.2 - 0.0 - - - - - - -
04/10:00am 13.2 NNW 3 5 1010.0 - 0.0 - - - - - - -
04/09:30am 12.5 NNW 6 8 1009.7 - 0.0 - - - - - - -
04/09:00am 11.2 NW 7 10 1009.6 - 16.2 - - - - - - -
04/08:30am 10.6 WNW 5 8 1009.2 - 16.2 - - - - - - -
04/08:00am 9.6 WNW 8 13 1008.8 - 16.2 - - - - - - -
04/07:30am 8.3 WNW 5 8 1008.3 - 16.2 - - - - - - -
04/07:00am 8.2 W 12 19 1007.2 - 16.2 - - - - - - -
04/06:30am 7.8 WNW 11 15 1006.6 - 16.2 - - - - - - -
04/06:00am 8.7 WNW 16 22 1005.8 - 16.2 - - - - - - -
04/05:30am 7.6 W 10 13 1005.5 - 16.2 - - - - - - -
04/05:00am 7.6 W 10 13 1005.0 - 16.2 - - - - - - -

Other Formats:

Comma delimited format used in spreadsheet applications
http://www.bom.gov.au/fwo/IDT60701/IDT60701.94983.axf

JavaScript Object Notation format (JSON) in row-major order
http://www.bom.gov.au/fwo/IDT60701/IDT60701.94983.json